createdAt,value
2023-05-05T00:02:25.486Z,12.89
2023-05-05T00:07:28.353Z,12.83
2023-05-05T00:12:31.288Z,12.82
2023-05-05T00:17:35.522Z,12.82
2023-05-05T00:22:38.215Z,12.84
2023-05-05T00:27:41.078Z,12.79
2023-05-05T00:32:45.243Z,12.77
2023-05-05T00:37:49.166Z,12.82
2023-05-05T00:42:52.422Z,12.86
2023-05-05T00:48:00.154Z,12.88
2023-05-05T00:53:04.559Z,12.81
2023-05-05T00:58:07.645Z,12.76
2023-05-05T01:03:12.981Z,12.62
2023-05-05T01:08:42.639Z,12.38
2023-05-05T01:13:53.740Z,12.29
2023-05-05T01:19:08.342Z,12.26
2023-05-05T01:24:28.165Z,12.24
2023-05-05T01:29:56.271Z,12.13
2023-05-05T01:35:03.595Z,12.10
2023-05-05T01:40:10.640Z,12.11
2023-05-05T01:45:15.681Z,12.02
2023-05-05T01:50:20.620Z,11.82
2023-05-05T01:55:27.299Z,11.90
2023-05-05T02:00:31.805Z,11.94
2023-05-05T02:05:38.736Z,11.95
2023-05-05T02:10:42.797Z,11.95
2023-05-05T02:15:46.566Z,11.96
2023-05-05T02:20:50.764Z,11.94
2023-05-05T02:25:57.058Z,11.88
2023-05-05T02:31:01.800Z,11.77
2023-05-05T02:36:14.339Z,11.80
2023-05-05T02:41:28.164Z,11.72
2023-05-05T02:46:32.336Z,11.64
2023-05-05T02:51:36.519Z,11.54
2023-05-05T02:56:49.926Z,11.48
2023-05-05T03:02:02.086Z,11.40
2023-05-05T03:07:14.121Z,11.36
2023-05-05T03:12:23.433Z,11.32
2023-05-05T03:17:36.786Z,11.35
2023-05-05T03:22:41.733Z,11.42
2023-05-05T03:27:48.415Z,11.46
2023-05-05T03:32:55.192Z,11.52
2023-05-05T03:37:59.930Z,11.55
2023-05-05T03:43:03.086Z,11.54
2023-05-05T03:48:06.988Z,11.53
2023-05-05T03:53:11.473Z,11.55
2023-05-05T03:58:14.720Z,11.53
2023-05-05T04:03:18.817Z,11.43
2023-05-05T04:08:23.595Z,11.43
2023-05-05T04:13:26.818Z,11.40
2023-05-05T04:18:31.282Z,11.38
2023-05-05T04:23:35.968Z,11.32
2023-05-05T04:28:39.134Z,11.33
2023-05-05T04:33:42.580Z,11.34
2023-05-05T04:38:47.251Z,11.29
2023-05-05T04:43:50.184Z,11.40
2023-05-05T04:48:53.512Z,11.49
2023-05-05T04:53:58.588Z,11.60
2023-05-05T04:59:01.541Z,11.84
2023-05-05T05:04:05.235Z,12.00
2023-05-05T05:09:10.181Z,12.18
2023-05-05T05:14:12.927Z,12.43
2023-05-05T05:19:18.588Z,12.70
2023-05-05T05:24:23.216Z,12.97
2023-05-05T05:29:27.616Z,13.38
2023-05-05T05:34:32.581Z,13.76
2023-05-05T05:39:37.599Z,14.01
2023-05-05T05:44:43.392Z,14.12
2023-05-05T05:49:46.559Z,14.35
2023-05-05T05:54:51.601Z,14.56
2023-05-05T05:59:55.431Z,15.12
2023-05-05T06:04:58.963Z,15.85
2023-05-05T06:10:18.676Z,16.56
2023-05-05T06:15:29.232Z,16.79
2023-05-05T06:20:32.928Z,17.16
2023-05-05T06:25:40.553Z,17.30
2023-05-05T06:30:46.778Z,17.58
2023-05-05T06:35:49.616Z,17.74
2023-05-05T06:40:54.631Z,17.91
2023-05-05T06:45:57.394Z,18.07
2023-05-05T06:51:00.356Z,18.15
2023-05-05T06:56:04.688Z,18.18
2023-05-05T07:01:08.557Z,18.22
2023-05-05T07:06:12.473Z,18.45
2023-05-05T07:11:17.831Z,18.46
2023-05-05T07:16:22.160Z,18.67
2023-05-05T07:21:24.956Z,18.97
2023-05-05T07:26:29.439Z,19.31
2023-05-05T07:31:32.476Z,19.57
2023-05-05T07:36:36.815Z,20.10
2023-05-05T07:41:42.758Z,20.18
2023-05-05T07:46:47.154Z,20.55
2023-05-05T07:51:50.363Z,20.67
2023-05-05T07:56:54.705Z,20.94
2023-05-05T08:01:57.674Z,20.98
2023-05-05T08:07:00.413Z,21.03
2023-05-05T08:12:05.783Z,21.16
2023-05-05T08:17:08.581Z,21.22
2023-05-05T08:22:15.582Z,21.51
2023-05-05T08:27:19.738Z,21.37
2023-05-05T08:32:22.657Z,21.71
2023-05-05T08:37:26.435Z,22.07
2023-05-05T08:42:38.205Z,22.34
2023-05-05T08:47:45.032Z,22.26
2023-05-05T08:52:56.809Z,22.51
2023-05-05T08:58:04.184Z,22.43
2023-05-05T09:03:08.966Z,22.79
2023-05-05T09:08:12.945Z,22.75
2023-05-05T09:13:17.269Z,22.98
2023-05-05T09:18:20.158Z,23.23
2023-05-05T09:23:23.103Z,23.27
2023-05-05T09:28:28.169Z,23.18
2023-05-05T09:33:32.759Z,23.71
2023-05-05T09:38:35.887Z,23.13
2023-05-05T09:43:52.835Z,23.62
2023-05-05T09:48:56.531Z,23.81
2023-05-05T09:53:59.447Z,23.06
2023-05-05T09:59:10.503Z,23.74
2023-05-05T10:04:24.864Z,23.61
2023-05-05T10:09:34.024Z,23.96
2023-05-05T10:14:38.865Z,23.89
2023-05-05T10:19:43.645Z,24.19
2023-05-05T10:24:55.865Z,24.33
2023-05-05T10:30:06.691Z,23.68
2023-05-05T10:35:10.967Z,23.42
2023-05-05T10:40:15.912Z,23.24
2023-05-05T10:45:20.888Z,23.87
2023-05-05T10:50:30.793Z,23.11
2023-05-05T10:55:40.929Z,23.85
2023-05-05T11:00:52.689Z,24.21
2023-05-05T11:06:16.591Z,24.60
2023-05-05T11:11:57.746Z,24.72
2023-05-05T11:17:02.910Z,25.06
2023-05-05T11:22:10.369Z,24.66
2023-05-05T11:27:13.155Z,25.51
2023-05-05T11:32:19.912Z,25.16
2023-05-05T11:37:24.629Z,26.10
2023-05-05T11:42:29.193Z,25.59
2023-05-05T11:47:33.887Z,25.67
2023-05-05T11:52:37.414Z,26.28
2023-05-05T11:57:40.144Z,27.05
2023-05-05T12:02:44.342Z,27.12
2023-05-05T12:07:48.977Z,27.92
2023-05-05T12:12:55.551Z,27.10
2023-05-05T12:18:03.432Z,28.43
2023-05-05T12:23:09.566Z,27.15
2023-05-05T12:28:12.269Z,27.70
2023-05-05T12:33:20.996Z,27.51
2023-05-05T12:38:25.155Z,28.02
2023-05-05T12:43:33.022Z,29.29
2023-05-05T12:48:40.124Z,30.35
2023-05-05T12:53:43.964Z,31.59
2023-05-05T12:58:49.656Z,31.90
2023-05-05T13:04:07.418Z,31.24
2023-05-05T13:09:13.546Z,31.25
2023-05-05T13:14:16.320Z,29.72
2023-05-05T13:19:21.083Z,28.36
2023-05-05T13:24:42.200Z,27.91
2023-05-05T13:29:50.044Z,28.67
2023-05-05T13:34:55.010Z,26.98
2023-05-05T13:39:59.314Z,25.32
2023-05-05T13:45:06.773Z,25.14
2023-05-05T13:50:14.620Z,23.98
2023-05-05T13:55:17.737Z,23.59
2023-05-05T14:00:21.432Z,24.59
2023-05-05T14:05:27.050Z,24.57
2023-05-05T14:10:31.086Z,23.16
2023-05-05T14:15:34.110Z,22.51
2023-05-05T14:20:39.221Z,22.02
2023-05-05T14:25:42.720Z,21.31
2023-05-05T14:30:46.126Z,21.17
2023-05-05T14:35:50.469Z,21.15
2023-05-05T14:40:53.263Z,21.05
2023-05-05T14:45:58.289Z,20.60
2023-05-05T14:51:04.173Z,20.82
2023-05-05T14:56:08.395Z,20.93
2023-05-05T15:01:13.594Z,21.19
2023-05-05T15:06:18.045Z,21.19
2023-05-05T15:11:23.656Z,21.11
2023-05-05T15:16:28.920Z,20.91
2023-05-05T15:21:33.551Z,21.46
2023-05-05T15:26:36.615Z,22.77
2023-05-05T15:31:41.419Z,23.49
2023-05-05T15:36:46.183Z,23.97
2023-05-05T15:41:49.723Z,24.89
2023-05-05T15:46:52.487Z,26.07
2023-05-05T15:51:57.069Z,27.78
2023-05-05T15:57:01.334Z,25.94
2023-05-05T16:02:04.356Z,25.63
2023-05-05T16:07:09.306Z,25.29
2023-05-05T16:12:12.159Z,25.12
2023-05-05T16:17:15.213Z,23.41
2023-05-05T16:22:20.963Z,22.69
2023-05-05T16:27:24.546Z,21.49
2023-05-05T16:32:27.305Z,20.79
2023-05-05T16:37:34.241Z,21.95
2023-05-05T16:42:37.849Z,27.16
2023-05-05T16:47:40.748Z,23.52
2023-05-05T16:52:45.272Z,22.96
2023-05-05T16:57:48.248Z,23.16
2023-05-05T17:02:51.104Z,27.34
2023-05-05T17:07:55.234Z,23.22
2023-05-05T17:12:58.316Z,25.83
2023-05-05T17:18:02.757Z,26.18
2023-05-05T17:23:08.721Z,28.04
2023-05-05T17:28:12.131Z,25.65
2023-05-05T17:33:18.276Z,25.32
2023-05-05T17:38:22.454Z,23.98
2023-05-05T17:43:26.771Z,22.26
2023-05-05T17:48:29.685Z,21.58
2023-05-05T17:53:35.310Z,20.87
2023-05-05T17:58:39.181Z,20.46
2023-05-05T18:03:42.136Z,20.07
2023-05-05T18:08:46.604Z,19.42
2023-05-05T18:13:49.930Z,19.12
2023-05-05T18:18:55.199Z,18.89
2023-05-05T18:24:11.646Z,18.59
2023-05-05T18:29:23.345Z,18.23
2023-05-05T18:34:29.355Z,18.20
2023-05-05T18:39:33.540Z,17.85
2023-05-05T18:44:36.357Z,17.61
2023-05-05T18:49:40.327Z,17.54
2023-05-05T18:54:46.154Z,17.35
2023-05-05T18:59:49.090Z,17.16
2023-05-05T19:04:52.486Z,17.17
2023-05-05T19:09:56.673Z,16.93
2023-05-05T19:14:59.434Z,16.95
2023-05-05T19:20:03.169Z,16.72
2023-05-05T19:25:08.196Z,16.50
2023-05-05T19:30:13.896Z,16.25
2023-05-05T19:35:16.908Z,16.22
2023-05-05T19:40:21.134Z,16.17
2023-05-05T19:45:23.950Z,16.05
2023-05-05T19:50:30.747Z,15.86
2023-05-05T19:55:35.593Z,15.82
2023-05-05T20:00:38.430Z,15.68
2023-05-05T20:05:42.048Z,15.71
2023-05-05T20:10:46.944Z,15.66
2023-05-05T20:15:49.696Z,15.53
2023-05-05T20:20:52.526Z,15.40
2023-05-05T20:25:57.395Z,15.24
2023-05-05T20:31:00.782Z,15.23
2023-05-05T20:36:03.727Z,15.09
2023-05-05T20:41:08.078Z,14.99
2023-05-05T20:46:13.215Z,14.86
2023-05-05T20:51:17.181Z,14.74
2023-05-05T20:56:21.766Z,14.63
2023-05-05T21:01:24.762Z,14.53
2023-05-05T21:06:27.590Z,14.46
2023-05-05T21:11:31.781Z,14.39
2023-05-05T21:16:34.545Z,14.33
2023-05-05T21:21:37.455Z,14.33
2023-05-05T21:26:43.475Z,14.35
2023-05-05T21:31:46.524Z,14.36
2023-05-05T21:36:49.396Z,14.29
2023-05-05T21:41:53.891Z,14.21
2023-05-05T21:46:56.730Z,14.24
2023-05-05T21:51:59.589Z,14.19
2023-05-05T21:57:04.479Z,14.15
2023-05-05T22:02:07.269Z,14.07
2023-05-05T22:07:10.282Z,14.01
2023-05-05T22:12:14.376Z,13.90
2023-05-05T22:17:17.489Z,13.73
2023-05-05T22:22:20.466Z,13.71
2023-05-05T22:27:25.213Z,13.69
2023-05-05T22:32:28.050Z,13.65
2023-05-05T22:37:30.926Z,13.53
2023-05-05T22:42:35.112Z,13.42
2023-05-05T22:47:38.412Z,13.50
2023-05-05T22:52:41.225Z,13.45
2023-05-05T22:57:45.323Z,13.40
2023-05-05T23:02:48.177Z,13.39
2023-05-05T23:07:51.128Z,13.30
2023-05-05T23:12:55.376Z,13.26
2023-05-05T23:17:58.218Z,13.24
2023-05-05T23:23:01.214Z,13.17
2023-05-05T23:28:05.885Z,13.21
2023-05-05T23:33:08.721Z,13.18
2023-05-05T23:38:11.585Z,13.06
2023-05-05T23:43:15.810Z,13.06
2023-05-05T23:48:18.556Z,13.09
2023-05-05T23:53:21.360Z,12.94
2023-05-05T23:58:25.636Z,12.90
